sensor_id;sensor_type;location;lat;lon;timestamp;temperature;humidity
45339;DHT22;31071;51.478;5.710;2023-03-20T00:00:45;9.20;99.90
45339;DHT22;31071;51.478;5.710;2023-03-20T00:03:11;9.20;99.90
45339;DHT22;31071;51.478;5.710;2023-03-20T00:05:37;9.20;99.90
45339;DHT22;31071;51.478;5.710;2023-03-20T00:08:03;9.10;99.90
45339;DHT22;31071;51.478;5.710;2023-03-20T00:10:35;9.10;99.90
45339;DHT22;31071;51.478;5.710;2023-03-20T00:13:03;9.10;99.90
45339;DHT22;31071;51.478;5.710;2023-03-20T00:15:40;9.80;99.90
45339;DHT22;31071;51.478;5.710;2023-03-20T00:18:18;9.00;99.90
45339;DHT22;31071;51.478;5.710;2023-03-20T00:20:48;9.00;99.90
45339;DHT22;31071;51.478;5.710;2023-03-20T00:23:15;8.80;99.90
45339;DHT22;31071;51.478;5.710;2023-03-20T00:25:41;8.90;99.90
45339;DHT22;31071;51.478;5.710;2023-03-20T00:28:40;9.00;99.90
45339;DHT22;31071;51.478;5.710;2023-03-20T00:33:50;9.00;99.90
45339;DHT22;31071;51.478;5.710;2023-03-20T00:36:15;9.00;99.90
45339;DHT22;31071;51.478;5.710;2023-03-20T00:38:41;9.00;99.90
45339;DHT22;31071;51.478;5.710;2023-03-20T00:41:22;9.10;99.90
45339;DHT22;31071;51.478;5.710;2023-03-20T00:43:54;9.00;99.90
45339;DHT22;31071;51.478;5.710;2023-03-20T00:46:21;9.00;99.90
45339;DHT22;31071;51.478;5.710;2023-03-20T00:48:47;9.00;99.90
45339;DHT22;31071;51.478;5.710;2023-03-20T00:51:13;8.90;99.90
45339;DHT22;31071;51.478;5.710;2023-03-20T00:53:38;9.40;99.90
45339;DHT22;31071;51.478;5.710;2023-03-20T00:56:04;8.90;99.90
45339;DHT22;31071;51.478;5.710;2023-03-20T00:58:30;8.90;99.90
45339;DHT22;31071;51.478;5.710;2023-03-20T01:00:56;8.90;99.90
45339;DHT22;31071;51.478;5.710;2023-03-20T01:03:24;8.90;99.90
45339;DHT22;31071;51.478;5.710;2023-03-20T01:05:50;8.80;99.90
45339;DHT22;31071;51.478;5.710;2023-03-20T01:08:20;8.80;99.90
45339;DHT22;31071;51.478;5.710;2023-03-20T01:10:49;8.80;99.90
45339;DHT22;31071;51.478;5.710;2023-03-20T01:13:22;8.70;99.90
45339;DHT22;31071;51.478;5.710;2023-03-20T01:15:49;8.70;99.90
45339;DHT22;31071;51.478;5.710;2023-03-20T01:18:15;8.70;99.90
45339;DHT22;31071;51.478;5.710;2023-03-20T01:20:42;8.70;99.90
45339;DHT22;31071;51.478;5.710;2023-03-20T01:23:08;8.80;99.90
45339;DHT22;31071;51.478;5.710;2023-03-20T01:25:35;8.70;99.90
45339;DHT22;31071;51.478;5.710;2023-03-20T01:28:01;8.70;99.90
45339;DHT22;31071;51.478;5.710;2023-03-20T01:30:30;8.70;99.90
45339;DHT22;31071;51.478;5.710;2023-03-20T01:32:59;8.60;99.90
45339;DHT22;31071;51.478;5.710;2023-03-20T01:35:27;8.60;99.90
45339;DHT22;31071;51.478;5.710;2023-03-20T01:37:54;8.50;99.90
45339;DHT22;31071;51.478;5.710;2023-03-20T01:43:11;8.30;99.90
45339;DHT22;31071;51.478;5.710;2023-03-20T01:45:41;8.20;99.90
45339;DHT22;31071;51.478;5.710;2023-03-20T01:48:15;8.20;99.90
45339;DHT22;31071;51.478;5.710;2023-03-20T01:50:42;8.10;99.90
45339;DHT22;31071;51.478;5.710;2023-03-20T01:53:18;8.10;99.90
45339;DHT22;31071;51.478;5.710;2023-03-20T01:55:44;8.00;99.90
45339;DHT22;31071;51.478;5.710;2023-03-20T01:58:18;8.00;99.90
45339;DHT22;31071;51.478;5.710;2023-03-20T02:00:45;8.00;99.90
45339;DHT22;31071;51.478;5.710;2023-03-20T02:03:13;7.90;99.90
45339;DHT22;31071;51.478;5.710;2023-03-20T02:05:41;7.90;99.90
45339;DHT22;31071;51.478;5.710;2023-03-20T02:08:20;7.90;99.90
45339;DHT22;31071;51.478;5.710;2023-03-20T02:10:48;7.80;99.90
45339;DHT22;31071;51.478;5.710;2023-03-20T02:13:15;7.80;99.90
45339;DHT22;31071;51.478;5.710;2023-03-20T02:16:11;7.80;99.90
45339;DHT22;31071;51.478;5.710;2023-03-20T02:18:38;7.70;99.90
45339;DHT22;31071;51.478;5.710;2023-03-20T02:29:37;7.70;99.90
45339;DHT22;31071;51.478;5.710;2023-03-20T02:35:11;7.60;99.90
45339;DHT22;31071;51.478;5.710;2023-03-20T02:37:58;7.50;99.90
45339;DHT22;31071;51.478;5.710;2023-03-20T02:43:20;7.50;99.90
45339;DHT22;31071;51.478;5.710;2023-03-20T02:48:45;7.40;99.90
45339;DHT22;31071;51.478;5.710;2023-03-20T02:51:36;7.40;99.90
45339;DHT22;31071;51.478;5.710;2023-03-20T02:54:07;7.40;99.90
45339;DHT22;31071;51.478;5.710;2023-03-20T02:56:50;7.40;99.90
45339;DHT22;31071;51.478;5.710;2023-03-20T03:01:51;7.40;99.90
45339;DHT22;31071;51.478;5.710;2023-03-20T03:04:19;7.40;99.90
45339;DHT22;31071;51.478;5.710;2023-03-20T03:06:49;7.40;99.90
45339;DHT22;31071;51.478;5.710;2023-03-20T03:09:22;7.40;99.90
45339;DHT22;31071;51.478;5.710;2023-03-20T03:11:52;7.40;99.90
45339;DHT22;31071;51.478;5.710;2023-03-20T03:14:38;7.40;99.90
45339;DHT22;31071;51.478;5.710;2023-03-20T03:17:06;7.30;99.90
45339;DHT22;31071;51.478;5.710;2023-03-20T03:19:35;7.30;99.90
45339;DHT22;31071;51.478;5.710;2023-03-20T03:22:02;7.30;99.90
45339;DHT22;31071;51.478;5.710;2023-03-20T03:24:37;7.30;99.90
45339;DHT22;31071;51.478;5.710;2023-03-20T03:27:16;7.20;99.90
45339;DHT22;31071;51.478;5.710;2023-03-20T03:29:45;7.20;99.90
45339;DHT22;31071;51.478;5.710;2023-03-20T03:32:30;7.10;99.90
45339;DHT22;31071;51.478;5.710;2023-03-20T03:34:58;7.20;99.90
45339;DHT22;31071;51.478;5.710;2023-03-20T03:37:40;7.10;99.90
45339;DHT22;31071;51.478;5.710;2023-03-20T03:42:42;7.00;99.90
45339;DHT22;31071;51.478;5.710;2023-03-20T03:45:16;7.00;99.90
45339;DHT22;31071;51.478;5.710;2023-03-20T03:47:59;7.00;99.90
45339;DHT22;31071;51.478;5.710;2023-03-20T03:50:42;7.00;99.90
45339;DHT22;31071;51.478;5.710;2023-03-20T03:53:14;6.90;99.90
45339;DHT22;31071;51.478;5.710;2023-03-20T03:55:48;6.90;99.90
45339;DHT22;31071;51.478;5.710;2023-03-20T03:58:23;6.90;99.90
45339;DHT22;31071;51.478;5.710;2023-03-20T04:00:51;6.90;99.90
45339;DHT22;31071;51.478;5.710;2023-03-20T04:03:20;6.90;99.90
45339;DHT22;31071;51.478;5.710;2023-03-20T04:05:50;6.80;99.90
45339;DHT22;31071;51.478;5.710;2023-03-20T04:08:17;6.80;99.90
45339;DHT22;31071;51.478;5.710;2023-03-20T04:10:43;6.80;99.90
45339;DHT22;31071;51.478;5.710;2023-03-20T04:13:08;6.80;99.90
45339;DHT22;31071;51.478;5.710;2023-03-20T04:15:34;6.80;99.90
45339;DHT22;31071;51.478;5.710;2023-03-20T04:18:00;6.70;99.90
45339;DHT22;31071;51.478;5.710;2023-03-20T04:20:26;6.70;99.90
45339;DHT22;31071;51.478;5.710;2023-03-20T04:22:51;6.70;99.90
45339;DHT22;31071;51.478;5.710;2023-03-20T04:25:22;6.70;99.90
45339;DHT22;31071;51.478;5.710;2023-03-20T04:27:48;6.60;99.90
45339;DHT22;31071;51.478;5.710;2023-03-20T04:30:15;6.60;99.90
45339;DHT22;31071;51.478;5.710;2023-03-20T04:32:40;6.60;99.90
45339;DHT22;31071;51.478;5.710;2023-03-20T04:35:06;6.60;99.90
45339;DHT22;31071;51.478;5.710;2023-03-20T04:37:32;6.60;99.90
45339;DHT22;31071;51.478;5.710;2023-03-20T04:39:57;6.60;99.90
45339;DHT22;31071;51.478;5.710;2023-03-20T04:42:23;6.60;99.90
45339;DHT22;31071;51.478;5.710;2023-03-20T04:44:49;6.70;99.90
45339;DHT22;31071;51.478;5.710;2023-03-20T04:47:14;6.60;99.90
45339;DHT22;31071;51.478;5.710;2023-03-20T04:49:40;6.60;99.90
45339;DHT22;31071;51.478;5.710;2023-03-20T04:52:05;6.60;99.90
45339;DHT22;31071;51.478;5.710;2023-03-20T04:54:31;6.60;99.90
45339;DHT22;31071;51.478;5.710;2023-03-20T04:56:57;6.60;99.90
45339;DHT22;31071;51.478;5.710;2023-03-20T04:59:22;6.60;99.90
45339;DHT22;31071;51.478;5.710;2023-03-20T05:01:48;7.00;99.90
45339;DHT22;31071;51.478;5.710;2023-03-20T05:04:13;6.50;99.90
45339;DHT22;31071;51.478;5.710;2023-03-20T05:06:39;6.50;99.90
45339;DHT22;31071;51.478;5.710;2023-03-20T05:09:04;6.50;99.90
45339;DHT22;31071;51.478;5.710;2023-03-20T05:11:30;6.50;99.90
45339;DHT22;31071;51.478;5.710;2023-03-20T05:13:55;6.60;99.90
45339;DHT22;31071;51.478;5.710;2023-03-20T05:16:21;6.60;99.90
45339;DHT22;31071;51.478;5.710;2023-03-20T05:18:46;6.60;99.90
45339;DHT22;31071;51.478;5.710;2023-03-20T05:21:12;6.60;99.90
45339;DHT22;31071;51.478;5.710;2023-03-20T05:23:37;6.60;99.90
45339;DHT22;31071;51.478;5.710;2023-03-20T05:26:03;6.60;99.90
45339;DHT22;31071;51.478;5.710;2023-03-20T05:28:29;6.60;99.90
45339;DHT22;31071;51.478;5.710;2023-03-20T05:30:55;6.60;99.90
45339;DHT22;31071;51.478;5.710;2023-03-20T05:33:21;6.60;99.90
45339;DHT22;31071;51.478;5.710;2023-03-20T05:35:46;6.70;99.90
45339;DHT22;31071;51.478;5.710;2023-03-20T05:38:12;6.70;99.90
45339;DHT22;31071;51.478;5.710;2023-03-20T05:40:37;6.70;99.90
45339;DHT22;31071;51.478;5.710;2023-03-20T05:43:03;6.70;99.90
45339;DHT22;31071;51.478;5.710;2023-03-20T05:45:29;6.70;99.90
45339;DHT22;31071;51.478;5.710;2023-03-20T05:47:54;6.70;99.90
45339;DHT22;31071;51.478;5.710;2023-03-20T05:50:20;6.70;99.90
45339;DHT22;31071;51.478;5.710;2023-03-20T05:52:47;6.70;99.90
45339;DHT22;31071;51.478;5.710;2023-03-20T05:55:13;6.70;99.90
45339;DHT22;31071;51.478;5.710;2023-03-20T05:57:39;6.80;99.90
45339;DHT22;31071;51.478;5.710;2023-03-20T06:00:05;6.80;99.90
45339;DHT22;31071;51.478;5.710;2023-03-20T06:02:30;6.80;99.90
45339;DHT22;31071;51.478;5.710;2023-03-20T06:04:56;6.80;99.90
45339;DHT22;31071;51.478;5.710;2023-03-20T06:07:22;6.80;99.90
45339;DHT22;31071;51.478;5.710;2023-03-20T06:09:47;6.90;99.90
45339;DHT22;31071;51.478;5.710;2023-03-20T06:12:13;6.90;99.90
45339;DHT22;31071;51.478;5.710;2023-03-20T06:14:38;7.00;99.90
45339;DHT22;31071;51.478;5.710;2023-03-20T06:17:04;7.00;99.90
45339;DHT22;31071;51.478;5.710;2023-03-20T06:19:30;7.00;99.90
45339;DHT22;31071;51.478;5.710;2023-03-20T06:21:55;7.00;99.90
45339;DHT22;31071;51.478;5.710;2023-03-20T06:24:21;7.00;99.90
45339;DHT22;31071;51.478;5.710;2023-03-20T06:26:46;7.10;99.90
45339;DHT22;31071;51.478;5.710;2023-03-20T06:29:12;7.10;99.90
45339;DHT22;31071;51.478;5.710;2023-03-20T06:31:37;7.10;99.90
45339;DHT22;31071;51.478;5.710;2023-03-20T06:34:03;7.10;99.90
45339;DHT22;31071;51.478;5.710;2023-03-20T06:36:29;7.10;99.90
45339;DHT22;31071;51.478;5.710;2023-03-20T06:38:55;7.10;99.90
45339;DHT22;31071;51.478;5.710;2023-03-20T06:41:21;7.10;99.90
45339;DHT22;31071;51.478;5.710;2023-03-20T06:43:47;7.20;99.90
45339;DHT22;31071;51.478;5.710;2023-03-20T06:46:13;7.20;99.90
45339;DHT22;31071;51.478;5.710;2023-03-20T06:48:38;7.30;99.90
45339;DHT22;31071;51.478;5.710;2023-03-20T06:51:04;7.40;99.90
45339;DHT22;31071;51.478;5.710;2023-03-20T06:53:30;7.30;99.90
45339;DHT22;31071;51.478;5.710;2023-03-20T06:55:55;7.30;99.90
45339;DHT22;31071;51.478;5.710;2023-03-20T06:58:21;7.40;99.90
45339;DHT22;31071;51.478;5.710;2023-03-20T07:00:47;7.40;99.90
45339;DHT22;31071;51.478;5.710;2023-03-20T07:03:12;7.40;99.90
45339;DHT22;31071;51.478;5.710;2023-03-20T07:05:38;7.40;99.90
45339;DHT22;31071;51.478;5.710;2023-03-20T07:08:05;7.50;99.90
45339;DHT22;31071;51.478;5.710;2023-03-20T07:10:32;7.50;99.90
45339;DHT22;31071;51.478;5.710;2023-03-20T07:12:58;7.60;99.90
45339;DHT22;31071;51.478;5.710;2023-03-20T07:15:25;8.50;99.90
45339;DHT22;31071;51.478;5.710;2023-03-20T07:17:51;7.70;99.90
45339;DHT22;31071;51.478;5.710;2023-03-20T07:20:16;7.70;99.90
45339;DHT22;31071;51.478;5.710;2023-03-20T07:22:42;7.80;99.90
45339;DHT22;31071;51.478;5.710;2023-03-20T07:25:08;7.80;99.90
45339;DHT22;31071;51.478;5.710;2023-03-20T07:27:35;7.90;99.90
45339;DHT22;31071;51.478;5.710;2023-03-20T07:30:02;7.80;99.90
45339;DHT22;31071;51.478;5.710;2023-03-20T07:32:28;7.80;99.90
45339;DHT22;31071;51.478;5.710;2023-03-20T07:34:54;7.80;99.90
45339;DHT22;31071;51.478;5.710;2023-03-20T07:38:04;7.90;99.90
45339;DHT22;31071;51.478;5.710;2023-03-20T07:50:05;7.90;99.90
45339;DHT22;31071;51.478;5.710;2023-03-20T07:52:31;8.00;99.90
45339;DHT22;31071;51.478;5.710;2023-03-20T07:55:00;9.70;99.90
45339;DHT22;31071;51.478;5.710;2023-03-20T07:57:32;8.20;99.90
45339;DHT22;31071;51.478;5.710;2023-03-20T07:59:57;9.20;99.90
45339;DHT22;31071;51.478;5.710;2023-03-20T08:02:27;9.50;99.90
45339;DHT22;31071;51.478;5.710;2023-03-20T08:05:04;9.00;99.90
45339;DHT22;31071;51.478;5.710;2023-03-20T08:07:38;8.30;99.90
45339;DHT22;31071;51.478;5.710;2023-03-20T08:10:05;9.40;99.90
45339;DHT22;31071;51.478;5.710;2023-03-20T08:12:30;8.30;99.90
45339;DHT22;31071;51.478;5.710;2023-03-20T08:14:56;9.40;99.90
45339;DHT22;31071;51.478;5.710;2023-03-20T08:17:21;9.30;99.90
45339;DHT22;31071;51.478;5.710;2023-03-20T08:19:47;8.50;99.90
45339;DHT22;31071;51.478;5.710;2023-03-20T08:22:13;9.70;99.90
45339;DHT22;31071;51.478;5.710;2023-03-20T08:24:38;8.80;99.90
45339;DHT22;31071;51.478;5.710;2023-03-20T08:27:04;9.00;99.90
45339;DHT22;31071;51.478;5.710;2023-03-20T08:29:30;8.20;99.90
45339;DHT22;31071;51.478;5.710;2023-03-20T08:31:55;10.30;99.90
45339;DHT22;31071;51.478;5.710;2023-03-20T08:34:22;9.50;99.90
45339;DHT22;31071;51.478;5.710;2023-03-20T08:36:47;8.40;99.90
45339;DHT22;31071;51.478;5.710;2023-03-20T08:39:13;9.70;99.90
45339;DHT22;31071;51.478;5.710;2023-03-20T08:41:39;9.50;99.90
45339;DHT22;31071;51.478;5.710;2023-03-20T08:44:06;9.70;99.90
45339;DHT22;31071;51.478;5.710;2023-03-20T08:46:32;8.50;99.90
45339;DHT22;31071;51.478;5.710;2023-03-20T08:48:58;8.10;99.90
45339;DHT22;31071;51.478;5.710;2023-03-20T08:51:25;8.90;99.90
45339;DHT22;31071;51.478;5.710;2023-03-20T08:54:42;8.50;99.90
45339;DHT22;31071;51.478;5.710;2023-03-20T11:04:53;8.50;99.90
45339;DHT22;31071;51.478;5.710;2023-03-20T12:01:55;9.00;99.90
45339;DHT22;31071;51.478;5.710;2023-03-20T12:04:35;9.00;99.90
45339;DHT22;31071;51.478;5.710;2023-03-20T12:07:36;9.20;99.90
45339;DHT22;31071;51.478;5.710;2023-03-20T12:10:10;9.30;99.90
45339;DHT22;31071;51.478;5.710;2023-03-20T12:13:25;9.00;99.90
45339;DHT22;31071;51.478;5.710;2023-03-20T12:15:56;11.10;99.90
45339;DHT22;31071;51.478;5.710;2023-03-20T12:27:20;9.50;99.90
45339;DHT22;31071;51.478;5.710;2023-03-20T12:30:12;9.50;99.90
45339;DHT22;31071;51.478;5.710;2023-03-20T12:35:17;9.70;99.90
45339;DHT22;31071;51.478;5.710;2023-03-20T12:37:49;9.90;99.90
45339;DHT22;31071;51.478;5.710;2023-03-20T12:40:21;11.00;99.90
45339;DHT22;31071;51.478;5.710;2023-03-20T13:02:17;9.60;99.90
45339;DHT22;31071;51.478;5.710;2023-03-20T13:14:32;9.60;99.90
45339;DHT22;31071;51.478;5.710;2023-03-20T13:27:21;9.60;99.90
45339;DHT22;31071;51.478;5.710;2023-03-20T13:35:51;9.90;99.90
45339;DHT22;31071;51.478;5.710;2023-03-20T13:38:39;10.40;99.90
45339;DHT22;31071;51.478;5.710;2023-03-20T13:41:07;10.20;99.90
45339;DHT22;31071;51.478;5.710;2023-03-20T13:43:49;10.70;99.90
45339;DHT22;31071;51.478;5.710;2023-03-20T13:47:01;9.90;99.90
45339;DHT22;31071;51.478;5.710;2023-03-20T13:58:21;9.90;99.90
45339;DHT22;31071;51.478;5.710;2023-03-20T14:03:39;9.70;99.90
45339;DHT22;31071;51.478;5.710;2023-03-20T14:06:51;11.10;99.90
45339;DHT22;31071;51.478;5.710;2023-03-20T14:09:32;9.80;99.90
45339;DHT22;31071;51.478;5.710;2023-03-20T14:15:51;10.00;99.90
45339;DHT22;31071;51.478;5.710;2023-03-20T14:18:21;9.80;99.90
45339;DHT22;31071;51.478;5.710;2023-03-20T14:24:05;10.10;99.90
45339;DHT22;31071;51.478;5.710;2023-03-20T14:26:38;9.90;99.90
45339;DHT22;31071;51.478;5.710;2023-03-20T14:31:47;10.70;99.90
45339;DHT22;31071;51.478;5.710;2023-03-20T14:34:17;8.90;99.90
45339;DHT22;31071;51.478;5.710;2023-03-20T14:37:22;10.00;99.90
45339;DHT22;31071;51.478;5.710;2023-03-20T14:43:01;10.20;99.90
45339;DHT22;31071;51.478;5.710;2023-03-20T14:45:51;10.10;99.90
45339;DHT22;31071;51.478;5.710;2023-03-20T14:53:28;11.30;99.90
45339;DHT22;31071;51.478;5.710;2023-03-20T14:56:19;11.00;99.90
45339;DHT22;31071;51.478;5.710;2023-03-20T15:07:41;9.80;99.90
45339;DHT22;31071;51.478;5.710;2023-03-20T15:10:09;9.80;99.90
45339;DHT22;31071;51.478;5.710;2023-03-20T15:12:37;10.00;99.90
45339;DHT22;31071;51.478;5.710;2023-03-20T15:15:06;10.00;99.90
45339;DHT22;31071;51.478;5.710;2023-03-20T15:17:38;10.00;99.90
45339;DHT22;31071;51.478;5.710;2023-03-20T15:20:24;10.50;99.90
45339;DHT22;31071;51.478;5.710;2023-03-20T15:22:54;10.10;99.90
45339;DHT22;31071;51.478;5.710;2023-03-20T15:25:43;10.20;99.90
45339;DHT22;31071;51.478;5.710;2023-03-20T15:28:15;10.40;99.90
45339;DHT22;31071;51.478;5.710;2023-03-20T15:30:42;10.40;99.90
45339;DHT22;31071;51.478;5.710;2023-03-20T15:33:16;10.40;99.90
45339;DHT22;31071;51.478;5.710;2023-03-20T15:35:42;10.60;99.90
45339;DHT22;31071;51.478;5.710;2023-03-20T15:38:13;10.60;99.90
45339;DHT22;31071;51.478;5.710;2023-03-20T15:40:40;10.60;99.90
45339;DHT22;31071;51.478;5.710;2023-03-20T15:43:21;10.70;99.90
45339;DHT22;31071;51.478;5.710;2023-03-20T15:45:47;10.70;99.90
45339;DHT22;31071;51.478;5.710;2023-03-20T15:48:17;10.70;99.90
45339;DHT22;31071;51.478;5.710;2023-03-20T15:50:49;10.70;99.90
45339;DHT22;31071;51.478;5.710;2023-03-20T15:53:18;10.60;99.90
45339;DHT22;31071;51.478;5.710;2023-03-20T15:55:52;10.70;99.90
45339;DHT22;31071;51.478;5.710;2023-03-20T15:58:21;10.60;99.90
45339;DHT22;31071;51.478;5.710;2023-03-20T16:00:49;10.50;99.90
45339;DHT22;31071;51.478;5.710;2023-03-20T16:03:17;10.50;99.90
45339;DHT22;31071;51.478;5.710;2023-03-20T16:05:47;10.50;99.90
45339;DHT22;31071;51.478;5.710;2023-03-20T16:08:22;10.50;99.90
45339;DHT22;31071;51.478;5.710;2023-03-20T16:10:48;10.50;99.90
45339;DHT22;31071;51.478;5.710;2023-03-20T16:13:19;10.50;99.90
45339;DHT22;31071;51.478;5.710;2023-03-20T16:15:48;9.80;99.90
45339;DHT22;31071;51.478;5.710;2023-03-20T16:18:15;10.50;99.90
45339;DHT22;31071;51.478;5.710;2023-03-20T16:20:53;10.60;99.90
45339;DHT22;31071;51.478;5.710;2023-03-20T16:23:34;10.50;99.90
45339;DHT22;31071;51.478;5.710;2023-03-20T16:26:04;10.40;99.90
45339;DHT22;31071;51.478;5.710;2023-03-20T16:28:40;10.50;99.90
45339;DHT22;31071;51.478;5.710;2023-03-20T16:31:12;10.40;99.90
45339;DHT22;31071;51.478;5.710;2023-03-20T16:33:40;11.80;99.90
45339;DHT22;31071;51.478;5.710;2023-03-20T16:36:06;10.40;99.90
45339;DHT22;31071;51.478;5.710;2023-03-20T16:38:34;10.40;99.90
45339;DHT22;31071;51.478;5.710;2023-03-20T16:43:48;11.20;99.90
45339;DHT22;31071;51.478;5.710;2023-03-20T16:46:19;10.90;99.90
45339;DHT22;31071;51.478;5.710;2023-03-20T16:48:49;10.40;99.90
45339;DHT22;31071;51.478;5.710;2023-03-20T16:51:20;11.70;99.90
45339;DHT22;31071;51.478;5.710;2023-03-20T16:53:48;10.40;99.90
45339;DHT22;31071;51.478;5.710;2023-03-20T16:56:27;10.70;99.90
45339;DHT22;31071;51.478;5.710;2023-03-20T16:58:53;10.40;99.90
45339;DHT22;31071;51.478;5.710;2023-03-20T17:01:25;10.30;99.90
45339;DHT22;31071;51.478;5.710;2023-03-20T17:03:54;10.40;99.90
45339;DHT22;31071;51.478;5.710;2023-03-20T17:09:00;10.40;99.90
45339;DHT22;31071;51.478;5.710;2023-03-20T17:11:31;10.40;99.90
45339;DHT22;31071;51.478;5.710;2023-03-20T17:13:58;10.40;99.90
45339;DHT22;31071;51.478;5.710;2023-03-20T17:16:24;10.30;99.90
45339;DHT22;31071;51.478;5.710;2023-03-20T17:19:00;10.30;99.90
45339;DHT22;31071;51.478;5.710;2023-03-20T17:21:26;10.30;99.90
45339;DHT22;31071;51.478;5.710;2023-03-20T17:23:52;10.30;99.90
45339;DHT22;31071;51.478;5.710;2023-03-20T17:26:18;10.30;99.90
45339;DHT22;31071;51.478;5.710;2023-03-20T17:28:43;10.30;99.90
45339;DHT22;31071;51.478;5.710;2023-03-20T17:31:13;10.20;99.90
45339;DHT22;31071;51.478;5.710;2023-03-20T17:33:39;10.20;99.90
45339;DHT22;31071;51.478;5.710;2023-03-20T17:36:23;10.20;99.90
45339;DHT22;31071;51.478;5.710;2023-03-20T17:38:50;10.20;99.90
45339;DHT22;31071;51.478;5.710;2023-03-20T17:41:18;10.10;99.90
45339;DHT22;31071;51.478;5.710;2023-03-20T17:43:44;10.10;99.90
45339;DHT22;31071;51.478;5.710;2023-03-20T17:46:26;10.10;99.90
45339;DHT22;31071;51.478;5.710;2023-03-20T19:12:46;10.20;99.90
45339;DHT22;31071;51.478;5.710;2023-03-20T19:15:12;10.10;99.90
45339;DHT22;31071;51.478;5.710;2023-03-20T19:17:50;10.70;99.90
45339;DHT22;31071;51.478;5.710;2023-03-20T19:27:10;10.30;99.90
